Norwood, Ohio
Current Conditions -  °F | °C
As of 3:25 AM on Tuesday 27 Jan 2015 (Local Time) from KLUK Reporting Station
Light Snow Light Snow  
Wind Chill: 13°   Ceiling: 7000
Heat Index: 21°   Visibility: 5mi
Dew Point: 15°   Wind: 6mph
Humidity: 78%   Direction: 40°NE
Pressure: 29.96"   Gusts: NA
Location:  39.16°N, 84.45°W
Report Text: KLUK 270825Z AUTO 04005KT 5SM -SN SCT027 BKN070 OVC090 M06/M09 A2996 RMK AO2 SNB14 P0000 T10611094
Loading
Personal Weather Stations






























Interactive Weather Map New forecast layout! Learn more

10-Day Weather Forecast

Advertisements
Track Severe Weather on mobile